Time;durP1;ratioP1;P1;durP2;ratioP2;P2;SDS_P1;SDS_P2;PMS_P1;PMS_P2;Temp;Humidity;BMP_temperature;BMP_pressure;BME280_temperature;BME280_humidity;BME280_pressure;Samples;Min_cycle;Max_cycle;Signal;HPM_P1;HPM_P2
2023/03/12 00:01:32;;;;;;;15.37;8.77;;;6.40;99.90;;;;;;5033037;28;20228;-63
2023/03/12 00:03:58;;;;;;;26.77;16.73;;;6.50;99.90;;;;;;5032615;28;20705;-63
2023/03/12 00:06:23;;;;;;;36.47;21.50;;;6.60;99.90;;;;;;5032650;28;20691;-63
2023/03/12 00:08:49;;;;;;;11.33;9.30;;;6.80;99.90;;;;;;5032461;28;20220;-62
2023/03/12 00:11:18;;;;;;;13.40;8.73;;;6.80;99.90;;;;;;5031984;28;20187;-63
2023/03/12 00:13:43;;;;;;;9.50;7.70;;;6.70;99.90;;;;;;5022445;28;20743;-62
2023/03/12 00:16:12;;;;;;;12.23;7.13;;;6.80;99.90;;;;;;5032169;28;20187;-62
2023/03/12 00:18:39;;;;;;;10.00;6.70;;;6.70;99.90;;;;;;5032506;28;20651;-62
2023/03/12 00:21:05;;;;;;;12.90;9.17;;;6.70;99.90;;;;;;5032041;28;20192;-62
2023/03/12 00:23:31;;;;;;;15.97;10.83;;;6.70;99.90;;;;;;5027544;28;20193;-63
2023/03/12 00:26:02;;;;;;;15.43;10.03;;;6.80;99.90;;;;;;5049311;28;20551;-62
2023/03/12 00:28:28;;;;;;;12.43;6.83;;;6.80;99.90;;;;;;5033142;28;20687;-62
2023/03/12 00:30:54;;;;;;;9.43;6.07;;;6.70;99.90;;;;;;5040731;28;20210;-62
2023/03/12 00:33:19;;;;;;;11.03;7.90;;;6.60;99.90;;;;;;5029411;28;20190;-62
2023/03/12 00:35:45;;;;;;;6.73;5.97;;;6.60;99.90;;;;;;5051409;28;20248;-63
2023/03/12 00:38:11;;;;;;;8.17;7.23;;;6.50;99.90;;;;;;5043199;28;20682;-62
2023/03/12 00:40:38;;;;;;;17.83;10.00;;;6.30;99.90;;;;;;5045228;28;20182;-62
2023/03/12 00:43:03;;;;;;;14.47;9.43;;;6.40;99.90;;;;;;5046369;28;20209;-62
2023/03/12 00:45:29;;;;;;;9.03;6.27;;;6.40;99.90;;;;;;5039037;28;20645;-62
2023/03/12 00:47:55;;;;;;;10.37;6.47;;;6.50;99.90;;;;;;5040165;28;20476;-62
2023/03/12 00:50:20;;;;;;;6.93;5.53;;;6.50;99.90;;;;;;5042373;28;20293;-62
2023/03/12 00:52:46;;;;;;;8.27;6.23;;;6.60;99.90;;;;;;5049372;28;20670;-62
2023/03/12 00:55:12;;;;;;;12.83;6.83;;;6.50;99.90;;;;;;5043651;28;20182;-63
2023/03/12 00:57:38;;;;;;;6.83;5.90;;;6.40;99.90;;;;;;5039739;28;20289;-62
2023/03/12 01:00:09;;;;;;;8.70;5.90;;;6.50;99.90;;;;;;5044805;28;20611;-62
2023/03/12 01:02:35;;;;;;;8.03;6.33;;;6.40;99.90;;;;;;5048218;28;20224;-62
2023/03/12 01:05:00;;;;;;;7.23;5.07;;;6.50;99.90;;;;;;5045843;28;20273;-62
2023/03/12 01:07:26;;;;;;;6.30;5.13;;;6.50;99.90;;;;;;5057547;28;20647;-62
2023/03/12 01:09:51;;;;;;;9.23;6.20;;;6.40;99.90;;;;;;5069349;28;20221;-62
2023/03/12 01:12:17;;;;;;;7.93;5.63;;;6.40;99.90;;;;;;5067895;28;20299;-62
2023/03/12 01:14:43;;;;;;;5.97;4.90;;;6.40;99.90;;;;;;5066398;28;20264;-62
2023/03/12 01:17:08;;;;;;;8.27;5.00;;;6.40;99.90;;;;;;5063559;28;20205;-62
2023/03/12 01:19:34;;;;;;;9.63;4.73;;;6.30;99.90;;;;;;5068131;28;20630;-62
2023/03/12 01:22:00;;;;;;;7.73;5.00;;;6.30;99.90;;;;;;5056651;28;20259;-62
2023/03/12 01:24:25;;;;;;;8.53;4.70;;;6.30;99.90;;;;;;5057686;28;20275;-63
2023/03/12 01:26:51;;;;;;;7.40;4.97;;;6.20;99.90;;;;;;5053971;28;20193;-62
2023/03/12 01:29:17;;;;;;;8.40;4.77;;;6.30;99.90;;;;;;5051507;28;20214;-62
2023/03/12 01:31:42;;;;;;;3.77;3.43;;;6.30;99.90;;;;;;5054339;28;20189;-62
2023/03/12 01:34:10;;;;;;;5.10;4.60;;;6.40;99.90;;;;;;5061172;28;20186;-63
2023/03/12 01:36:36;;;;;;;4.90;4.03;;;6.30;99.90;;;;;;5069879;28;20584;-62
2023/03/12 01:39:03;;;;;;;3.60;3.27;;;6.30;99.90;;;;;;5063012;28;20190;-63
2023/03/12 01:41:33;;;;;;;4.47;3.30;;;6.30;99.90;;;;;;5058810;28;20190;-63
2023/03/12 01:44:02;;;;;;;3.67;3.10;;;6.30;99.90;;;;;;5059338;28;20198;-63
2023/03/12 01:46:32;;;;;;;4.27;3.63;;;6.20;99.90;;;;;;5073443;28;20192;-63
2023/03/12 01:49:09;;;;;;;4.13;3.73;;;6.30;99.90;;;;;;5066454;28;20284;-63
2023/03/12 01:51:44;;;;;;;5.23;3.30;;;6.30;99.90;;;;;;5068123;28;20192;-63
2023/03/12 01:54:36;;;;;;;7.20;4.73;;;6.40;99.90;;;;;;5055324;28;20236;-62
2023/03/12 01:57:05;;;;;;;4.67;3.50;;;6.30;99.90;;;;;;5062323;28;20194;-63
2023/03/12 01:59:37;;;;;;;6.23;3.50;;;6.30;99.90;;;;;;5068440;28;20196;-63
2023/03/12 02:02:04;;;;;;;6.50;3.63;;;6.20;99.90;;;;;;5070267;28;20184;-62
2023/03/12 02:04:32;;;;;;;3.80;3.50;;;6.30;99.90;;;;;;5072211;28;20177;-63
2023/03/12 02:07:04;;;;;;;5.77;3.73;;;6.30;99.90;;;;;;5050008;28;20234;-63
2023/03/12 02:09:33;;;;;;;5.50;3.73;;;6.20;99.90;;;;;;5033031;28;20213;-62
2023/03/12 02:11:59;;;;;;;5.53;3.43;;;6.20;99.90;;;;;;5044705;28;20197;-63
2023/03/12 02:14:25;;;;;;;3.47;3.23;;;6.10;99.90;;;;;;5051344;28;20190;-63
2023/03/12 02:16:53;;;;;;;4.13;3.53;;;6.00;99.90;;;;;;5040331;28;20682;-63
2023/03/12 02:19:36;;;;;;;3.80;3.33;;;6.10;99.90;;;;;;5045934;28;20297;-63
2023/03/12 02:22:02;;;;;;;3.33;3.03;;;6.20;99.90;;;;;;5049103;28;20654;-63
2023/03/12 02:24:52;;;;;;;3.40;3.10;;;6.10;99.90;;;;;;5053491;28;20197;-63
2023/03/12 02:27:20;;;;;;;3.10;2.80;;;6.10;99.90;;;;;;5046994;28;20192;-63
2023/03/12 02:29:46;;;;;;;6.67;3.13;;;6.00;99.90;;;;;;5041444;28;20522;-63
2023/03/12 02:32:22;;;;;;;4.80;3.33;;;6.00;99.90;;;;;;5047351;28;20247;-63
2023/03/12 02:34:49;;;;;;;9.00;3.07;;;6.00;99.90;;;;;;5046863;28;20192;-63
2023/03/12 02:37:15;;;;;;;8.47;3.50;;;6.20;99.90;;;;;;5038064;28;20183;-62
2023/03/12 02:39:43;;;;;;;5.73;2.70;;;6.10;99.90;;;;;;5041372;28;20304;-63
2023/03/12 02:42:09;;;;;;;6.07;3.47;;;6.10;99.90;;;;;;5045981;28;20341;-63
2023/03/12 02:44:36;;;;;;;3.53;3.07;;;6.10;99.90;;;;;;5044514;28;20194;-63
2023/03/12 02:47:03;;;;;;;3.50;2.90;;;6.20;99.90;;;;;;5035820;28;20670;-64
2023/03/12 02:49:32;;;;;;;7.13;3.70;;;6.10;99.90;;;;;;5034224;28;20302;-63
2023/03/12 02:51:58;;;;;;;6.00;3.13;;;6.20;99.90;;;;;;5050121;28;20622;-63
2023/03/12 02:54:24;;;;;;;6.20;2.70;;;6.10;99.90;;;;;;5041598;28;20268;-63
2023/03/12 02:56:51;;;;;;;4.60;2.93;;;6.10;99.90;;;;;;5036759;28;20196;-63
2023/03/12 02:59:19;;;;;;;6.60;4.00;;;6.20;99.90;;;;;;5046469;28;20194;-63
2023/03/12 03:01:45;;;;;;;3.13;2.90;;;6.20;99.90;;;;;;5050921;28;20186;-63
2023/03/12 03:04:12;;;;;;;5.07;2.93;;;6.10;99.90;;;;;;5038821;28;20611;-63
2023/03/12 03:06:40;;;;;;;4.70;3.13;;;6.00;99.90;;;;;;5055160;28;20244;-63
2023/03/12 03:09:06;;;;;;;4.23;2.97;;;5.90;99.90;;;;;;5069160;28;20241;-63
2023/03/12 03:11:32;;;;;;;4.90;2.40;;;5.90;99.90;;;;;;5070913;28;20323;-63
2023/03/12 03:13:58;;;;;;;5.13;3.00;;;5.90;99.90;;;;;;5063275;28;20217;-63
2023/03/12 03:16:23;;;;;;;5.43;2.50;;;6.10;99.90;;;;;;5073713;28;20271;-63
2023/03/12 03:18:49;;;;;;;6.50;3.30;;;6.10;99.90;;;;;;5058760;28;20247;-62
2023/03/12 03:21:16;;;;;;;4.33;2.87;;;6.10;99.90;;;;;;5054607;28;20635;-62
2023/03/12 03:23:43;;;;;;;3.07;2.87;;;6.00;99.90;;;;;;5064898;28;20243;-62
2023/03/12 03:26:09;;;;;;;4.90;3.50;;;6.10;99.90;;;;;;5068852;28;20582;-62
2023/03/12 03:28:35;;;;;;;3.67;3.13;;;6.10;99.90;;;;;;5052375;28;20312;-62
2023/03/12 03:31:01;;;;;;;5.70;3.83;;;6.10;99.90;;;;;;5055695;28;20189;-62
2023/03/12 03:33:28;;;;;;;3.70;3.27;;;6.20;99.90;;;;;;5057545;28;20657;-62
2023/03/12 03:35:55;;;;;;;4.70;3.27;;;6.20;99.90;;;;;;5055045;28;20666;-62
2023/03/12 03:38:22;;;;;;;4.13;3.10;;;6.20;99.90;;;;;;5058131;28;20181;-62
2023/03/12 03:40:47;;;;;;;3.33;3.03;;;6.20;99.90;;;;;;5066849;28;20189;-62
2023/03/12 03:43:14;;;;;;;3.20;2.90;;;6.40;99.90;;;;;;5063491;28;20554;-62
2023/03/12 03:45:40;;;;;;;6.50;3.57;;;6.30;99.90;;;;;;5071350;28;20654;-63
2023/03/12 03:48:06;;;;;;;5.47;3.40;;;6.40;99.90;;;;;;5071365;28;20196;-62
2023/03/12 03:50:31;;;;;;;4.37;3.50;;;6.30;99.90;;;;;;5063414;28;20225;-62
2023/03/12 03:52:57;;;;;;;5.70;3.20;;;6.40;99.90;;;;;;5053375;28;20197;-62
2023/03/12 03:55:23;;;;;;;3.63;3.17;;;6.40;99.90;;;;;;5055769;28;20185;-62
2023/03/12 03:57:48;;;;;;;4.10;2.87;;;6.30;99.90;;;;;;5061510;28;20383;-62
2023/03/12 04:00:16;;;;;;;3.47;2.67;;;6.20;99.90;;;;;;5054287;28;20185;-62
2023/03/12 04:02:43;;;;;;;3.97;2.87;;;6.30;99.90;;;;;;5061366;28;20197;-63
2023/03/12 04:05:09;;;;;;;4.50;4.13;;;6.40;99.90;;;;;;5052247;28;20241;-62
2023/03/12 04:07:35;;;;;;;5.70;3.03;;;6.40;99.90;;;;;;5042983;28;20233;-62
2023/03/12 04:10:02;;;;;;;5.93;3.70;;;6.30;99.90;;;;;;5045336;28;20210;-62
2023/03/12 04:12:28;;;;;;;5.43;3.47;;;6.20;99.90;;;;;;5051132;28;20227;-63
2023/03/12 04:14:54;;;;;;;2.83;2.63;;;6.20;99.90;;;;;;5023868;28;20187;-63
2023/03/12 04:17:20;;;;;;;3.40;3.10;;;6.30;99.90;;;;;;5048393;28;20210;-62
2023/03/12 04:19:45;;;;;;;4.93;3.27;;;6.30;99.90;;;;;;5050662;28;20256;-62
2023/03/12 04:22:11;;;;;;;5.87;3.47;;;6.20;99.90;;;;;;5044958;28;20190;-63
2023/03/12 04:24:37;;;;;;;4.83;3.10;;;6.30;99.90;;;;;;5033170;28;20646;-62
2023/03/12 04:27:03;;;;;;;5.10;4.27;;;6.30;99.90;;;;;;5040440;28;20270;-62
2023/03/12 04:29:28;;;;;;;3.93;3.57;;;6.40;99.90;;;;;;5041689;28;20206;-63
2023/03/12 04:31:54;;;;;;;7.73;3.57;;;6.40;99.90;;;;;;5032538;28;20702;-62
2023/03/12 04:34:20;;;;;;;3.67;3.33;;;6.30;99.90;;;;;;5024795;28;20191;-62
2023/03/12 04:36:46;;;;;;;7.43;4.23;;;6.30;99.90;;;;;;5041991;28;20186;-62
2023/03/12 04:39:12;;;;;;;6.73;3.43;;;6.40;99.90;;;;;;5049724;28;20277;-62
2023/03/12 04:41:38;;;;;;;8.90;4.57;;;6.30;99.90;;;;;;5048376;28;20193;-62
2023/03/12 04:44:04;;;;;;;4.67;3.80;;;6.10;99.90;;;;;;5042107;28;20205;-62
2023/03/12 04:46:30;;;;;;;7.90;3.93;;;6.20;99.90;;;;;;5045346;28;20548;-62
2023/03/12 04:48:57;;;;;;;6.97;4.27;;;6.20;99.90;;;;;;5051368;28;20213;-62
2023/03/12 04:51:23;;;;;;;8.53;4.07;;;6.20;99.90;;;;;;5050637;28;20235;-62
2023/03/12 04:53:49;;;;;;;4.20;3.90;;;6.40;99.90;;;;;;5034766;28;20187;-62
2023/03/12 04:56:14;;;;;;;4.10;3.70;;;6.40;99.90;;;;;;5034355;28;20189;-62
2023/03/12 04:58:40;;;;;;;5.97;4.00;;;6.40;99.90;;;;;;5035654;28;20186;-62
2023/03/12 05:01:06;;;;;;;9.30;4.60;;;6.40;99.90;;;;;;5033973;28;20647;-62
2023/03/12 05:03:32;;;;;;;7.67;4.83;;;6.50;99.90;;;;;;5035252;28;20557;-62
2023/03/12 05:05:58;;;;;;;5.60;4.30;;;6.60;99.90;;;;;;5031983;28;20273;-62
2023/03/12 05:08:23;;;;;;;6.93;4.90;;;6.50;99.90;;;;;;5042086;28;20611;-62
2023/03/12 05:10:49;;;;;;;4.67;4.13;;;6.60;99.90;;;;;;5032525;28;20190;-62
2023/03/12 05:13:18;;;;;;;6.93;5.30;;;6.60;99.90;;;;;;5036625;28;20564;-62
2023/03/12 05:15:44;;;;;;;6.33;5.67;;;6.50;99.90;;;;;;5031923;28;20201;-62
2023/03/12 05:18:10;;;;;;;8.17;5.03;;;6.50;99.90;;;;;;5040318;28;20267;-62
2023/03/12 05:20:36;;;;;;;7.23;4.37;;;6.60;99.90;;;;;;5048786;28;20232;-62
2023/03/12 05:23:02;;;;;;;10.20;5.53;;;6.70;99.90;;;;;;5023422;28;20186;-62
2023/03/12 05:25:27;;;;;;;6.40;5.10;;;6.70;99.90;;;;;;5036591;28;20197;-62
2023/03/12 05:27:55;;;;;;;6.37;5.40;;;6.70;99.90;;;;;;5020362;28;20195;-63
2023/03/12 05:30:21;;;;;;;9.53;5.83;;;6.60;99.90;;;;;;5017606;28;20214;-62
2023/03/12 05:32:46;;;;;;;5.57;4.87;;;6.70;99.90;;;;;;5050578;28;20186;-63
2023/03/12 05:35:12;;;;;;;7.67;6.30;;;6.70;99.90;;;;;;5035997;28;20212;-62
2023/03/12 05:37:38;;;;;;;8.63;5.13;;;6.70;99.90;;;;;;5036786;28;20241;-62
2023/03/12 05:40:06;;;;;;;9.67;6.83;;;6.80;99.90;;;;;;5044591;28;20194;-62
2023/03/12 05:42:32;;;;;;;11.00;6.00;;;6.80;99.90;;;;;;5036644;28;20235;-62
2023/03/12 05:44:58;;;;;;;10.87;6.80;;;6.70;99.90;;;;;;5047860;28;20182;-62
2023/03/12 05:47:23;;;;;;;9.83;5.83;;;6.70;99.90;;;;;;5054254;28;20194;-63
2023/03/12 05:49:49;;;;;;;7.90;5.87;;;6.80;99.90;;;;;;5011743;28;20631;-62
2023/03/12 05:52:15;;;;;;;13.43;7.17;;;6.80;99.90;;;;;;5020649;28;20201;-62
2023/03/12 05:54:41;;;;;;;15.07;7.07;;;6.90;99.90;;;;;;5041764;28;20544;-62
2023/03/12 05:57:07;;;;;;;10.93;6.90;;;6.90;99.90;;;;;;5049518;28;20190;-62
2023/03/12 05:59:33;;;;;;;12.37;7.07;;;6.80;99.90;;;;;;5051052;28;20209;-62
2023/03/12 06:01:59;;;;;;;9.97;6.80;;;6.90;99.90;;;;;;5044298;28;20186;-63
2023/03/12 06:04:24;;;;;;;9.77;6.47;;;6.90;99.90;;;;;;5053338;28;20201;-63
2023/03/12 06:06:50;;;;;;;10.17;5.57;;;6.90;99.90;;;;;;5044098;28;20317;-62
2023/03/12 06:09:16;;;;;;;12.73;5.87;;;6.90;99.90;;;;;;5038367;28;20253;-63
2023/03/12 06:11:41;;;;;;;10.27;6.83;;;7.00;99.90;;;;;;5046424;28;20197;-62
2023/03/12 06:14:07;;;;;;;14.97;8.13;;;6.90;99.90;;;;;;5044964;28;20267;-62
2023/03/12 06:16:33;;;;;;;9.63;7.03;;;6.80;99.90;;;;;;5053897;28;20269;-62
2023/03/12 06:19:00;;;;;;;8.43;6.80;;;6.90;99.90;;;;;;5053604;28;20193;-62
2023/03/12 06:21:32;;;;;;;15.33;7.50;;;6.90;99.90;;;;;;5043595;28;20285;-62
2023/03/12 06:23:58;;;;;;;9.43;7.17;;;7.00;99.90;;;;;;5046734;28;20178;-62
2023/03/12 06:26:25;;;;;;;8.43;7.47;;;6.90;99.90;;;;;;5034593;28;20267;-62
2023/03/12 06:28:51;;;;;;;13.33;7.70;;;6.90;99.90;;;;;;5041087;28;20681;-63
2023/03/12 06:31:17;;;;;;;9.90;7.23;;;7.00;99.90;;;;;;5038892;28;20190;-65
2023/03/12 06:33:43;;;;;;;8.70;7.87;;;7.00;99.90;;;;;;5035432;28;20554;-62
2023/03/12 06:36:10;;;;;;;11.40;8.17;;;7.10;99.90;;;;;;5035256;28;20197;-62
2023/03/12 06:38:36;;;;;;;11.53;8.13;;;7.00;99.90;;;;;;5047884;28;20265;-63
2023/03/12 06:41:05;;;;;;;13.60;7.83;;;7.10;99.90;;;;;;5047396;28;20612;-63
2023/03/12 06:43:32;;;;;;;13.00;8.47;;;7.20;99.90;;;;;;5038917;28;20190;-63
2023/03/12 06:45:59;;;;;;;13.70;8.33;;;7.30;99.90;;;;;;5046637;28;20534;-63
2023/03/12 06:48:26;;;;;;;11.03;8.37;;;7.40;99.90;;;;;;5034976;28;20191;-62
2023/03/12 06:50:52;;;;;;;13.40;9.47;;;7.50;99.90;;;;;;5044408;28;20182;-62
2023/03/12 06:53:19;;;;;;;13.17;8.50;;;7.40;99.90;;;;;;5021539;28;20537;-63
2023/03/12 06:55:45;;;;;;;14.40;7.57;;;7.50;99.90;;;;;;5045357;28;20225;-62
2023/03/12 06:58:11;;;;;;;16.40;7.93;;;7.50;99.90;;;;;;5049380;28;20665;-63
2023/03/12 07:00:37;;;;;;;11.00;8.73;;;7.60;99.90;;;;;;5044094;28;20202;-62
2023/03/12 07:03:02;;;;;;;12.43;7.77;;;7.70;99.90;;;;;;5046195;28;20237;-63
2023/03/12 07:05:29;;;;;;;16.50;8.20;;;7.70;99.90;;;;;;5028068;28;20668;-62
2023/03/12 07:07:55;;;;;;;13.30;7.87;;;7.80;99.90;;;;;;5047868;28;20258;-62
2023/03/12 07:10:21;;;;;;;17.83;8.83;;;7.90;99.90;;;;;;5046680;28;20295;-62
2023/03/12 07:12:47;;;;;;;13.33;8.90;;;8.00;99.90;;;;;;5036274;28;20625;-63
2023/03/12 07:15:13;;;;;;;16.10;8.13;;;8.10;99.90;;;;;;5029770;28;20358;-63
2023/03/12 07:17:39;;;;;;;15.33;8.57;;;8.20;99.90;;;;;;5051895;28;20220;-62
2023/03/12 07:20:06;;;;;;;14.53;9.00;;;8.20;99.90;;;;;;5041364;28;20190;-62
2023/03/12 07:22:31;;;;;;;15.67;7.90;;;8.30;99.90;;;;;;5048356;28;20186;-62
2023/03/12 07:24:57;;;;;;;13.40;9.43;;;8.50;99.90;;;;;;5033788;28;20295;-63
2023/03/12 07:27:23;;;;;;;18.10;8.93;;;8.50;99.90;;;;;;5046427;28;20186;-63
2023/03/12 07:29:49;;;;;;;15.23;8.77;;;8.50;99.90;;;;;;5024835;28;20293;-63
2023/03/12 07:32:14;;;;;;;15.70;8.23;;;8.60;99.90;;;;;;5042165;28;20190;-63
2023/03/12 07:34:40;;;;;;;19.40;9.47;;;8.60;99.90;;;;;;5047140;28;20269;-63
2023/03/12 07:37:06;;;;;;;13.23;8.50;;;8.70;99.90;;;;;;5049361;28;20576;-62
2023/03/12 07:39:31;;;;;;;16.77;9.17;;;8.80;99.90;;;;;;5038962;28;20594;-62
2023/03/12 07:41:57;;;;;;;18.20;8.83;;;9.00;99.90;;;;;;5032146;28;20635;-62
2023/03/12 07:44:25;;;;;;;17.83;9.00;;;9.10;99.90;;;;;;5051035;28;20623;-62
2023/03/12 07:46:51;;;;;;;17.40;8.97;;;9.10;99.90;;;;;;5032270;28;20194;-62
2023/03/12 07:49:17;;;;;;;18.83;9.40;;;9.20;99.90;;;;;;5042371;28;20220;-61
2023/03/12 07:51:42;;;;;;;13.73;9.33;;;9.30;99.90;;;;;;5022717;28;20187;-62
2023/03/12 07:54:08;;;;;;;18.67;9.27;;;9.30;99.90;;;;;;5036246;28;20198;-62
2023/03/12 07:56:34;;;;;;;18.83;9.80;;;9.40;99.90;;;;;;5022156;28;20686;-62
2023/03/12 07:58:59;;;;;;;22.67;10.03;;;9.40;99.90;;;;;;5046355;28;20197;-62
2023/03/12 08:01:30;;;;;;;20.13;11.03;;;9.40;99.90;;;;;;5025184;28;20545;-63
2023/03/12 08:03:57;;;;;;;18.43;8.80;;;9.40;99.90;;;;;;5043579;28;20649;-62
2023/03/12 08:06:23;;;;;;;25.40;9.30;;;9.50;99.90;;;;;;5035277;28;20695;-62
2023/03/12 08:08:49;;;;;;;22.73;11.07;;;9.50;99.90;;;;;;5036617;28;20206;-62
2023/03/12 08:11:16;;;;;;;22.27;9.27;;;9.60;99.90;;;;;;5024072;28;20468;-62
2023/03/12 08:13:42;;;;;;;24.57;9.70;;;9.70;99.90;;;;;;5046248;28;20190;-62
2023/03/12 08:16:08;;;;;;;19.67;9.50;;;9.70;99.90;;;;;;5045649;28;20642;-63
2023/03/12 08:18:34;;;;;;;23.70;9.90;;;9.70;99.90;;;;;;5044292;28;20197;-62
2023/03/12 08:20:59;;;;;;;19.33;10.10;;;9.80;99.90;;;;;;5050261;28;20195;-62
2023/03/12 08:23:25;;;;;;;30.57;11.07;;;10.00;99.90;;;;;;5047551;28;20634;-62
2023/03/12 08:25:52;;;;;;;20.53;11.07;;;10.10;99.90;;;;;;5047711;28;20257;-62
2023/03/12 08:28:19;;;;;;;28.33;10.53;;;10.10;99.90;;;;;;5045494;28;20182;-63
2023/03/12 08:30:50;;;;;;;26.57;9.50;;;10.10;99.90;;;;;;5050621;28;20197;-63
2023/03/12 08:33:16;;;;;;;30.17;9.17;;;10.20;99.90;;;;;;5043800;28;20182;-63
2023/03/12 08:35:42;;;;;;;24.30;9.80;;;10.30;99.90;;;;;;5044663;28;20507;-62
2023/03/12 08:38:07;;;;;;;31.70;9.97;;;10.30;99.90;;;;;;5031918;28;20296;-62
2023/03/12 08:40:33;;;;;;;26.93;9.17;;;10.40;99.90;;;;;;5050834;28;20201;-62
2023/03/12 08:42:59;;;;;;;26.83;9.43;;;10.60;99.90;;;;;;5030544;28;20186;-61
2023/03/12 08:45:25;;;;;;;21.98;9.82;;;10.90;99.90;;;;;;5044368;28;20491;-62
2023/03/12 08:47:51;;;;;;;27.35;7.57;;;11.00;99.90;;;;;;5030857;28;20285;-62
2023/03/12 08:50:17;;;;;;;23.50;7.95;;;11.10;99.90;;;;;;5043761;28;20749;-61
2023/03/12 08:52:43;;;;;;;27.15;9.05;;;11.20;99.90;;;;;;5040550;28;20685;-62
2023/03/12 08:55:10;;;;;;;26.60;8.32;;;11.30;99.90;;;;;;5048308;28;20634;-62
2023/03/12 08:57:36;;;;;;;23.92;9.30;;;11.30;99.90;;;;;;5052630;28;20605;-62
2023/03/12 09:00:04;;;;;;;28.02;8.98;;;11.70;99.90;;;;;;5048083;28;20272;-62
2023/03/12 09:02:30;;;;;;;32.42;6.80;;;12.10;99.90;;;;;;5048001;28;20186;-61
2023/03/12 09:04:56;;;;;;;22.90;8.48;;;12.50;99.90;;;;;;5026395;28;20192;-62
2023/03/12 09:07:22;;;;;;;19.75;6.28;;;12.70;99.90;;;;;;5043514;28;20241;-63
2023/03/12 09:09:48;;;;;;;16.88;7.25;;;12.90;99.90;;;;;;5040521;28;20225;-62
2023/03/12 09:12:13;;;;;;;17.23;5.85;;;12.90;99.90;;;;;;5050525;28;20198;-63
2023/03/12 09:14:40;;;;;;;17.20;6.50;;;13.10;99.90;;;;;;5051182;28;20198;-63
2023/03/12 09:17:06;;;;;;;16.05;6.97;;;13.10;99.90;;;;;;5035597;28;20180;-62
2023/03/12 09:19:32;;;;;;;16.65;5.80;;;13.30;99.90;;;;;;5029894;28;20212;-62
2023/03/12 09:21:58;;;;;;;17.05;4.60;;;13.20;99.90;;;;;;5043615;28;20182;-62
2023/03/12 09:24:23;;;;;;;16.08;4.20;;;12.90;99.90;;;;;;5045990;28;20269;-64
2023/03/12 09:26:49;;;;;;;25.88;5.32;;;12.70;99.90;;;;;;5047407;28;20189;-62
2023/03/12 09:29:15;;;;;;;26.27;4.32;;;12.60;99.90;;;;;;5045372;28;20259;-63
2023/03/12 09:31:40;;;;;;;15.15;5.45;;;12.70;99.90;;;;;;5035333;28;20225;-63
2023/03/12 09:34:06;;;;;;;13.48;3.88;;;12.90;99.90;;;;;;5022085;28;20293;-62
2023/03/12 09:36:32;;;;;;;15.75;4.40;;;13.10;99.90;;;;;;5047738;28;20282;-62
2023/03/12 09:38:58;;;;;;;18.75;4.95;;;13.60;99.90;;;;;;5044485;28;20269;-60
2023/03/12 09:41:30;;;;;;;15.77;5.55;;;13.70;99.90;;;;;;5046125;28;20639;-61
2023/03/12 09:44:17;;;;;;;23.70;5.15;;;13.70;99.90;;;;;;5037404;28;20190;-62
2023/03/12 09:46:50;;;;;;;15.52;4.20;;;13.90;99.90;;;;;;5043166;28;20185;-62
2023/03/12 09:49:28;;;;;;;16.95;4.03;;;14.10;99.90;;;;;;5046394;28;20658;-62
2023/03/12 09:51:57;;;;;;;24.05;4.78;;;14.30;99.90;;;;;;5051097;28;20181;-62
2023/03/12 09:54:42;;;;;;;18.45;4.88;;;14.60;99.90;;;;;;5053300;28;20182;-62
2023/03/12 09:57:18;;;;;;;17.00;4.60;;;14.50;99.90;;;;;;5050009;28;20634;-61
2023/03/12 09:59:44;;;;;;;22.52;4.80;;;14.40;99.90;;;;;;5050834;28;20648;-63
2023/03/12 10:02:36;;;;;;;11.43;5.05;;;14.20;99.90;;;;;;5046423;28;20240;-62
2023/03/12 10:05:24;;;;;;;17.33;5.00;;;13.90;99.90;;;;;;5041456;28;20190;-62
2023/03/12 10:08:18;;;;;;;21.58;4.88;;;13.80;99.90;;;;;;5051147;28;20236;-62
2023/03/12 10:11:04;;;;;;;18.15;5.57;;;14.00;99.90;;;;;;5031365;28;20236;-63
2023/03/12 10:13:39;;;;;;;21.83;3.97;;;14.20;99.90;;;;;;5049519;28;20197;-63
2023/03/12 10:16:17;;;;;;;23.13;4.75;;;14.20;99.90;;;;;;5053017;28;20196;-62
2023/03/12 10:18:46;;;;;;;17.50;4.75;;;14.10;99.90;;;;;;5053257;28;20182;-62
2023/03/12 10:21:47;;;;;;;25.98;3.95;;;14.00;99.90;;;;;;5045913;28;20194;-62
2023/03/12 10:24:16;;;;;;;16.42;3.40;;;13.80;99.90;;;;;;5034343;28;20183;-62
2023/03/12 10:26:48;;;;;;;20.38;4.13;;;13.60;99.90;;;;;;5046036;28;20247;-62
2023/03/12 10:29:21;;;;;;;9.77;3.72;;;13.80;99.90;;;;;;5045164;28;20206;-62
2023/03/12 10:31:56;;;;;;;25.67;6.45;;;13.90;99.90;;;;;;5051403;28;20239;-61
2023/03/12 10:34:21;;;;;;;26.42;6.57;;;14.20;99.90;;;;;;5044019;28;20188;-62
2023/03/12 10:36:47;;;;;;;18.95;4.75;;;14.30;99.90;;;;;;5049883;28;20262;-63
2023/03/12 10:39:18;;;;;;;18.75;3.83;;;14.50;99.90;;;;;;5042518;28;20195;-62
2023/03/12 10:41:46;;;;;;;21.40;4.47;;;14.40;99.90;;;;;;5041883;28;20182;-62
2023/03/12 10:44:20;;;;;;;24.08;4.43;;;14.40;99.90;;;;;;5045433;28;20186;-62
2023/03/12 10:47:03;;;;;;;20.92;5.38;;;14.60;99.90;;;;;;5033884;28;20656;-63
2023/03/12 10:49:32;;;;;;;13.27;3.90;;;14.60;99.90;;;;;;5047882;28;20198;-61
2023/03/12 10:52:01;;;;;;;21.90;4.15;;;14.70;99.90;;;;;;5044121;28;20252;-61
2023/03/12 10:54:36;;;;;;;19.70;4.25;;;14.60;99.90;;;;;;5041222;28;20260;-60
2023/03/12 10:57:03;;;;;;;18.98;4.57;;;14.80;99.90;;;;;;5050527;28;20192;-60
2023/03/12 10:59:32;;;;;;;16.38;2.97;;;14.80;99.90;;;;;;5043099;28;20186;-61
2023/03/12 11:01:59;;;;;;;15.88;4.88;;;15.00;99.90;;;;;;5047972;28;20253;-61
2023/03/12 11:04:32;;;;;;;37.85;11.07;;;15.10;99.90;;;;;;5042058;28;20248;-61
2023/03/12 11:07:22;;;;;;;29.48;12.15;;;14.80;99.90;;;;;;5048989;28;20283;-61
2023/03/12 11:10:05;;;;;;;28.40;8.00;;;14.80;99.90;;;;;;5038708;28;20663;-60
2023/03/12 11:12:33;;;;;;;20.80;5.60;;;14.80;99.90;;;;;;5036986;28;20708;-60
2023/03/12 11:15:11;;;;;;;26.48;10.00;;;14.60;99.90;;;;;;5041531;28;20186;-61
2023/03/12 11:17:37;;;;;;;36.45;14.82;;;14.60;99.90;;;;;;5040598;28;20208;-61
2023/03/12 11:20:23;;;;;;;29.77;11.68;;;14.50;99.90;;;;;;5050942;28;20202;-61
2023/03/12 11:22:49;;;;;;;15.15;3.78;;;14.40;99.90;;;;;;5045524;28;20170;-61
2023/03/12 11:25:27;;;;;;;17.70;4.28;;;14.50;99.90;;;;;;5045275;28;20235;-61
2023/03/12 11:27:56;;;;;;;23.63;5.55;;;14.50;99.90;;;;;;5044135;28;20190;-60
2023/03/12 11:30:31;;;;;;;24.13;5.50;;;14.50;99.90;;;;;;5048697;28;20635;-61
2023/03/12 11:32:57;;;;;;;14.73;3.65;;;14.90;99.90;;;;;;5035759;28;20268;-60
2023/03/12 11:35:42;;;;;;;19.90;5.25;;;14.90;99.90;;;;;;5020658;28;20266;-61
2023/03/12 11:38:20;;;;;;;17.52;3.72;;;14.70;99.90;;;;;;5049073;28;20307;-60
2023/03/12 11:41:18;;;;;;;18.83;3.28;;;14.70;99.90;;;;;;5037230;28;20655;-61
2023/03/12 11:43:55;;;;;;;24.88;6.28;;;14.70;99.90;;;;;;5032877;28;20182;-60
2023/03/12 11:46:24;;;;;;;17.33;4.43;;;14.60;99.90;;;;;;5044256;28;20312;-62
2023/03/12 11:49:16;;;;;;;17.00;4.45;;;14.70;99.90;;;;;;5042422;28;20643;-60
2023/03/12 11:52:06;;;;;;;19.73;4.57;;;14.70;99.90;;;;;;5037973;28;20186;-60
2023/03/12 11:54:45;;;;;;;20.10;6.55;;;14.50;99.90;;;;;;5044690;28;20177;-62
2023/03/12 11:57:37;;;;;;;28.25;5.43;;;14.10;99.90;;;;;;5046233;28;20186;-62
2023/03/12 12:00:12;;;;;;;25.25;6.40;;;14.10;99.90;;;;;;5009329;28;20199;-62
2023/03/12 12:03:08;;;;;;;18.67;4.57;;;14.40;99.90;;;;;;5024751;28;20205;-61
2023/03/12 12:05:46;;;;;;;21.85;5.22;;;14.70;99.90;;;;;;5046812;28;20178;-61
2023/03/12 12:08:35;;;;;;;13.60;5.13;;;14.70;99.90;;;;;;5037237;28;20190;-60
2023/03/12 12:11:09;;;;;;;16.30;4.22;;;14.80;99.90;;;;;;5036670;28;20182;-61
2023/03/12 12:13:47;;;;;;;14.10;4.40;;;14.90;99.90;;;;;;5043114;28;20237;-61
2023/03/12 12:16:32;;;;;;;25.25;3.85;;;15.10;99.90;;;;;;5038995;28;20557;-61
2023/03/12 12:19:33;;;;;;;26.23;5.72;;;15.40;99.90;;;;;;5042466;28;20644;-64
2023/03/12 12:22:10;;;;;;;19.35;3.97;;;15.10;99.90;;;;;;5037316;28;20635;-61
2023/03/12 12:25:13;;;;;;;17.40;3.65;;;14.60;99.90;;;;;;5043699;28;20200;-61
2023/03/12 12:28:04;;;;;;;19.48;4.40;;;14.50;99.90;;;;;;5047090;28;20720;-61
2023/03/12 12:30:35;;;;;;;14.52;3.40;;;14.60;99.90;;;;;;5003702;28;20225;-61
2023/03/12 12:33:22;;;;;;;13.07;3.72;;;14.70;99.90;;;;;;5024734;28;20192;-61
2023/03/12 12:35:49;;;;;;;10.90;2.80;;;14.90;99.90;;;;;;5045403;28;20631;-61
2023/03/12 12:38:29;;;;;;;11.27;3.63;;;15.00;99.90;;;;;;5045349;28;20236;-61
2023/03/12 12:41:09;;;;;;;20.33;2.97;;;15.10;99.90;;;;;;5044508;28;20182;-61
2023/03/12 12:43:46;;;;;;;9.77;4.07;;;15.30;99.90;;;;;;5038499;28;20178;-61
2023/03/12 12:46:25;;;;;;;17.90;3.83;;;15.40;99.90;;;;;;5038636;28;20190;-61
2023/03/12 12:48:56;;;;;;;17.35;3.30;;;15.40;99.90;;;;;;5032318;28;20178;-61
2023/03/12 12:51:38;;;;;;;19.70;3.58;;;15.40;99.90;;;;;;5032724;28;20182;-62
2023/03/12 12:54:29;;;;;;;6.82;2.58;;;15.50;99.90;;;;;;5041067;28;20264;-61
2023/03/12 12:57:04;;;;;;;17.40;3.55;;;15.60;99.90;;;;;;5028904;28;20271;-61
2023/03/12 12:59:33;;;;;;;13.82;3.15;;;15.90;99.90;;;;;;5033687;28;20545;-61